createdAt,value
2023-04-17T00:00:18.248Z,25.83
2023-04-17T00:01:20.462Z,27.20
2023-04-17T00:02:25.665Z,24.17
2023-04-17T00:03:28.072Z,21.37
2023-04-17T00:04:32.166Z,22.13
2023-04-17T00:05:34.369Z,23.50
2023-04-17T00:06:38.797Z,25.37
2023-04-17T00:07:41.251Z,23.57
2023-04-17T00:08:44.517Z,24.57
2023-04-17T00:09:46.504Z,26.17
2023-04-17T00:10:57.028Z,27.80
2023-04-17T00:12:08.965Z,27.23
2023-04-17T00:13:11.978Z,28.87
2023-04-17T00:14:14.246Z,31.13
2023-04-17T00:15:17.388Z,28.13
2023-04-17T00:16:19.878Z,28.60
2023-04-17T00:17:22.892Z,30.37
2023-04-17T00:18:24.945Z,30.17
2023-04-17T00:19:28.078Z,28.37
2023-04-17T00:20:30.124Z,31.13
2023-04-17T00:21:33.143Z,30.13
2023-04-17T00:22:37.037Z,30.17
2023-04-17T00:23:40.586Z,29.40
2023-04-17T00:24:42.666Z,29.70
2023-04-17T00:25:46.178Z,31.37
2023-04-17T00:26:48.390Z,33.47
2023-04-17T00:27:51.692Z,28.80
2023-04-17T00:28:53.892Z,29.83
2023-04-17T00:29:57.034Z,26.87
2023-04-17T00:30:59.596Z,27.97
2023-04-17T00:32:02.608Z,28.90
2023-04-17T00:33:04.928Z,28.50
2023-04-17T00:34:07.989Z,27.27
2023-04-17T00:35:10.791Z,28.93
2023-04-17T00:36:15.388Z,28.80
2023-04-17T00:37:17.609Z,28.50
2023-04-17T00:38:22.157Z,31.60
2023-04-17T00:39:24.280Z,27.53
2023-04-17T00:40:27.379Z,29.57
2023-04-17T00:41:29.410Z,27.10
2023-04-17T00:42:32.550Z,31.77
2023-04-17T00:43:34.678Z,28.40
2023-04-17T00:44:38.185Z,34.03
2023-04-17T00:45:41.519Z,32.70
2023-04-17T00:46:44.807Z,34.40
2023-04-17T00:47:47.823Z,32.97
2023-04-17T00:48:51.085Z,31.13
2023-04-17T00:49:53.246Z,31.33
2023-04-17T00:50:56.312Z,35.40
2023-04-17T00:51:58.978Z,32.10
2023-04-17T00:53:02.587Z,35.70
2023-04-17T00:54:07.256Z,39.00
2023-04-17T00:55:11.836Z,37.83
2023-04-17T00:56:14.489Z,37.63
2023-04-17T00:57:17.545Z,36.43
2023-04-17T00:58:19.833Z,32.27
2023-04-17T00:59:23.818Z,35.83
2023-04-17T01:00:25.984Z,35.67
2023-04-17T01:01:29.075Z,41.60
2023-04-17T01:02:31.494Z,36.00
2023-04-17T01:03:35.196Z,38.73
2023-04-17T01:04:37.439Z,38.23
2023-04-17T01:05:41.281Z,38.37
2023-04-17T01:06:43.480Z,38.23
2023-04-17T01:07:47.368Z,37.53
2023-04-17T01:08:49.499Z,33.70
2023-04-17T01:09:54.643Z,33.07
2023-04-17T01:10:56.666Z,37.40
2023-04-17T01:12:18.098Z,39.83
2023-04-17T01:13:20.693Z,41.40
2023-04-17T01:14:23.764Z,39.00
2023-04-17T01:15:26.383Z,35.33
2023-04-17T01:16:30.762Z,37.77
2023-04-17T01:17:32.979Z,40.53
2023-04-17T01:18:36.302Z,36.30
2023-04-17T01:19:38.484Z,35.33
2023-04-17T01:20:41.739Z,38.80
2023-04-17T01:21:43.761Z,40.80
2023-04-17T01:22:50.313Z,36.97
2023-04-17T01:23:53.265Z,40.90
2023-04-17T01:24:58.963Z,38.30
2023-04-17T01:26:05.896Z,33.37
2023-04-17T01:27:09.523Z,35.03
2023-04-17T01:28:12.380Z,35.37
2023-04-17T01:29:15.640Z,34.93
2023-04-17T01:30:18.582Z,35.93
2023-04-17T01:31:31.425Z,38.63
2023-04-17T01:32:34.470Z,33.77
2023-04-17T01:33:37.526Z,37.00
2023-04-17T01:34:39.560Z,35.93
2023-04-17T01:35:42.690Z,39.53
2023-04-17T01:36:44.724Z,42.53
2023-04-17T01:37:47.742Z,37.63
2023-04-17T01:38:49.843Z,37.93
2023-04-17T01:39:52.866Z,36.63
2023-04-17T01:40:56.294Z,37.77
2023-04-17T01:41:59.397Z,39.37
2023-04-17T01:43:01.866Z,39.90
2023-04-17T01:44:05.036Z,39.83
2023-04-17T01:45:08.426Z,40.80
2023-04-17T01:46:12.095Z,36.63
2023-04-17T01:47:14.227Z,37.40
2023-04-17T01:48:17.447Z,39.30
2023-04-17T01:49:19.706Z,35.57
2023-04-17T01:50:22.817Z,36.73
2023-04-17T01:51:25.024Z,36.50
2023-04-17T01:52:28.098Z,42.37
2023-04-17T01:53:31.240Z,37.47
2023-04-17T01:54:34.751Z,37.70
2023-04-17T01:55:36.998Z,34.87
2023-04-17T01:56:41.390Z,38.97
2023-04-17T01:57:43.665Z,33.90
2023-04-17T01:58:46.762Z,41.77
2023-04-17T01:59:49.194Z,40.30
2023-04-17T02:00:52.300Z,40.93
2023-04-17T02:01:55.553Z,41.13
2023-04-17T02:02:58.873Z,36.90
2023-04-17T02:04:01.093Z,35.60
2023-04-17T02:05:04.173Z,35.17
2023-04-17T02:06:06.696Z,33.10
2023-04-17T02:07:09.790Z,33.03
2023-04-17T02:08:11.881Z,35.70
2023-04-17T02:09:15.101Z,34.50
2023-04-17T02:10:17.386Z,34.20
2023-04-17T02:11:20.816Z,33.83
2023-04-17T02:12:27.610Z,41.33
2023-04-17T02:13:30.769Z,31.90
2023-04-17T02:14:32.800Z,40.53
2023-04-17T02:15:35.860Z,33.13
2023-04-17T02:16:38.822Z,37.13
2023-04-17T02:17:41.878Z,34.57
2023-04-17T02:18:46.178Z,36.27
2023-04-17T02:19:49.165Z,38.27
2023-04-17T02:20:51.180Z,35.97
2023-04-17T02:21:54.204Z,33.70
2023-04-17T02:22:56.437Z,31.50
2023-04-17T02:23:59.451Z,35.03
2023-04-17T02:25:04.125Z,33.23
2023-04-17T02:26:07.143Z,32.47
2023-04-17T02:27:09.229Z,34.33
2023-04-17T02:28:13.583Z,34.70
2023-04-17T02:29:15.675Z,31.87
2023-04-17T02:30:18.699Z,35.70
2023-04-17T02:31:20.877Z,33.20
2023-04-17T02:32:23.947Z,32.03
2023-04-17T02:33:26.392Z,30.23
2023-04-17T02:34:29.599Z,29.93
2023-04-17T02:35:32.221Z,33.90
2023-04-17T02:36:35.506Z,31.10
2023-04-17T02:37:38.974Z,33.03
2023-04-17T02:38:42.022Z,33.67
2023-04-17T02:39:44.089Z,28.17
2023-04-17T02:40:47.163Z,31.87
2023-04-17T02:41:49.252Z,28.17
2023-04-17T02:42:52.252Z,27.40
2023-04-17T02:43:56.695Z,28.27
2023-04-17T02:44:59.937Z,26.30
2023-04-17T02:46:02.168Z,27.40
2023-04-17T02:47:05.412Z,29.00
2023-04-17T02:48:08.850Z,29.70
2023-04-17T02:49:12.029Z,28.77
2023-04-17T02:50:15.460Z,25.83
2023-04-17T02:51:39.911Z,28.43
2023-04-17T02:52:42.356Z,30.73
2023-04-17T02:53:45.998Z,28.07
2023-04-17T02:54:48.083Z,27.97
2023-04-17T02:55:51.310Z,27.90
2023-04-17T02:56:58.426Z,28.73
2023-04-17T02:58:01.683Z,29.80
2023-04-17T02:59:05.179Z,29.63
2023-04-17T03:00:13.414Z,31.63
2023-04-17T03:01:15.828Z,31.63
2023-04-17T03:02:21.981Z,30.30
2023-04-17T03:03:24.562Z,31.80
2023-04-17T03:04:28.612Z,32.07
2023-04-17T03:05:30.799Z,30.07
2023-04-17T03:06:35.894Z,32.43
2023-04-17T03:07:39.216Z,33.07
2023-04-17T03:08:43.408Z,29.27
2023-04-17T03:09:47.177Z,30.73
2023-04-17T03:10:50.409Z,32.90
2023-04-17T03:11:52.472Z,32.50
2023-04-17T03:12:56.488Z,34.87
2023-04-17T03:13:58.696Z,35.20
2023-04-17T03:15:03.398Z,34.50
2023-04-17T03:16:06.734Z,33.70
2023-04-17T03:17:14.150Z,37.83
2023-04-17T03:18:16.464Z,34.47
2023-04-17T03:19:19.524Z,31.93
2023-04-17T03:20:21.583Z,31.93
2023-04-17T03:21:24.787Z,33.37
2023-04-17T03:22:27.022Z,31.23
2023-04-17T03:23:30.017Z,33.30
2023-04-17T03:24:32.121Z,31.80
2023-04-17T03:25:36.325Z,31.97
2023-04-17T03:26:38.520Z,36.43
2023-04-17T03:27:46.793Z,32.33
2023-04-17T03:28:50.090Z,31.23
2023-04-17T03:29:53.174Z,34.70
2023-04-17T03:30:59.521Z,33.63
2023-04-17T03:32:01.794Z,32.30
2023-04-17T03:33:05.765Z,34.50
2023-04-17T03:34:08.040Z,34.87
2023-04-17T03:35:11.110Z,30.33
2023-04-17T03:36:14.213Z,30.70
2023-04-17T03:37:16.451Z,30.93
2023-04-17T03:38:20.312Z,29.57
2023-04-17T03:39:22.488Z,31.83
2023-04-17T03:40:25.559Z,29.97
2023-04-17T03:41:27.722Z,31.43
2023-04-17T03:42:30.890Z,33.33
2023-04-17T03:43:33.054Z,33.87
2023-04-17T03:44:36.106Z,29.60
2023-04-17T03:45:38.192Z,32.83
2023-04-17T03:46:42.588Z,31.50
2023-04-17T03:47:44.948Z,31.40
2023-04-17T03:48:48.566Z,32.07
2023-04-17T03:49:51.142Z,32.73
2023-04-17T03:50:55.088Z,37.20
2023-04-17T03:51:58.164Z,36.50
2023-04-17T03:53:01.149Z,39.53
2023-04-17T03:54:05.451Z,37.13
2023-04-17T03:55:09.338Z,36.93
2023-04-17T03:56:11.617Z,38.30
2023-04-17T03:57:17.521Z,39.73
2023-04-17T03:58:19.665Z,37.67
2023-04-17T03:59:23.458Z,41.43
2023-04-17T04:00:26.030Z,38.27
2023-04-17T04:01:34.333Z,40.20
2023-04-17T04:02:49.801Z,43.67
2023-04-17T04:03:56.912Z,40.90
2023-04-17T04:05:00.022Z,39.70
2023-04-17T04:06:02.057Z,41.67
2023-04-17T04:07:06.001Z,38.93
2023-04-17T04:08:09.204Z,37.63
2023-04-17T04:09:20.333Z,39.20
2023-04-17T04:10:22.427Z,41.37
2023-04-17T04:11:25.704Z,38.30
2023-04-17T04:12:27.730Z,45.43
2023-04-17T04:13:30.778Z,42.73
2023-04-17T04:14:35.830Z,41.27
2023-04-17T04:15:40.204Z,45.00
2023-04-17T04:16:42.786Z,43.00
2023-04-17T04:17:49.282Z,41.70
2023-04-17T04:18:51.458Z,46.07
2023-04-17T04:19:54.779Z,46.80
2023-04-17T04:20:56.798Z,46.40
2023-04-17T04:22:06.633Z,49.20
2023-04-17T04:23:16.804Z,49.67
2023-04-17T04:24:21.069Z,49.13
2023-04-17T04:25:23.419Z,43.97
2023-04-17T04:26:40.981Z,47.80
2023-04-17T04:27:49.522Z,48.17
2023-04-17T04:28:56.785Z,45.27
2023-04-17T04:30:10.324Z,44.63
2023-04-17T04:31:18.840Z,46.63
2023-04-17T04:32:21.747Z,48.23
2023-04-17T04:33:29.536Z,45.30
2023-04-17T04:34:31.666Z,44.57
2023-04-17T04:35:35.477Z,50.97
2023-04-17T04:36:41.905Z,48.97
2023-04-17T04:37:54.953Z,47.63
2023-04-17T04:38:59.749Z,54.37
2023-04-17T04:40:10.695Z,47.27
2023-04-17T04:41:17.533Z,48.67
2023-04-17T04:42:22.376Z,48.60
2023-04-17T04:43:34.912Z,49.07
2023-04-17T04:44:39.261Z,51.00
2023-04-17T04:45:41.730Z,46.60
2023-04-17T04:46:44.923Z,46.23
2023-04-17T04:47:47.075Z,45.77
2023-04-17T04:48:51.479Z,46.87
2023-04-17T04:49:53.805Z,46.10
2023-04-17T04:50:58.204Z,42.97
2023-04-17T04:52:00.314Z,44.13
2023-04-17T04:53:08.392Z,44.00
2023-04-17T04:54:26.569Z,43.93
2023-04-17T04:55:32.323Z,42.40
2023-04-17T04:56:35.582Z,40.97
2023-04-17T04:57:38.380Z,42.17
2023-04-17T04:58:42.598Z,40.33
2023-04-17T04:59:44.744Z,40.53
2023-04-17T05:01:08.563Z,39.33
2023-04-17T05:02:15.585Z,44.03
2023-04-17T05:03:19.555Z,44.73
2023-04-17T05:04:25.265Z,42.17
2023-04-17T05:05:30.886Z,44.90
2023-04-17T05:06:34.473Z,47.83
2023-04-17T05:07:38.857Z,42.70
2023-04-17T05:08:46.937Z,44.77
2023-04-17T05:09:50.340Z,44.50
2023-04-17T05:10:53.574Z,49.10
2023-04-17T05:11:55.660Z,48.00
2023-04-17T05:12:58.882Z,51.17
2023-04-17T05:14:01.550Z,44.70
2023-04-17T05:15:08.966Z,49.60
2023-04-17T05:16:12.223Z,45.23
2023-04-17T05:17:14.944Z,42.30
2023-04-17T05:18:18.068Z,43.13
2023-04-17T05:19:20.250Z,46.83
2023-04-17T05:20:34.978Z,42.40
2023-04-17T05:21:37.137Z,45.37
2023-04-17T05:22:40.617Z,43.70
2023-04-17T05:23:46.079Z,45.30
2023-04-17T05:24:49.117Z,44.90
2023-04-17T05:25:52.419Z,43.10
2023-04-17T05:26:55.598Z,40.40
2023-04-17T05:27:58.502Z,45.50
2023-04-17T05:29:01.697Z,47.37
2023-04-17T05:30:07.487Z,46.77
2023-04-17T05:31:11.452Z,44.83
2023-04-17T05:32:16.732Z,43.93
2023-04-17T05:33:28.795Z,44.70
2023-04-17T05:34:35.888Z,43.60
2023-04-17T05:35:41.307Z,47.33
2023-04-17T05:36:43.513Z,46.60
2023-04-17T05:37:46.557Z,45.47
2023-04-17T05:38:48.803Z,44.03
2023-04-17T05:39:51.849Z,44.30
2023-04-17T05:40:54.999Z,38.60
2023-04-17T05:41:57.067Z,41.23
2023-04-17T05:43:07.399Z,41.23
2023-04-17T05:44:10.663Z,40.63
2023-04-17T05:45:14.601Z,40.33
2023-04-17T05:46:16.714Z,36.73
2023-04-17T05:47:20.128Z,38.43
2023-04-17T05:48:22.244Z,40.57
2023-04-17T05:49:25.296Z,37.93
2023-04-17T05:50:29.239Z,34.07
2023-04-17T05:51:32.727Z,41.47
2023-04-17T05:52:38.050Z,38.67
2023-04-17T05:53:44.656Z,35.23
2023-04-17T05:54:46.668Z,37.03
2023-04-17T05:55:49.747Z,37.20
2023-04-17T05:56:51.906Z,36.57
2023-04-17T05:57:57.636Z,34.63
2023-04-17T05:59:00.263Z,37.03
2023-04-17T06:00:10.590Z,37.33
2023-04-17T06:01:20.600Z,38.47
2023-04-17T06:02:26.176Z,38.73
2023-04-17T06:03:30.102Z,38.47
2023-04-17T06:04:43.684Z,37.03
2023-04-17T06:05:47.243Z,38.87
2023-04-17T06:06:51.792Z,38.80
2023-04-17T06:07:55.108Z,37.13
2023-04-17T06:08:58.582Z,38.07
2023-04-17T06:10:00.768Z,38.83
2023-04-17T06:11:03.916Z,36.17
2023-04-17T06:12:06.806Z,36.03
2023-04-17T06:13:10.032Z,32.73
2023-04-17T06:14:12.135Z,32.83
2023-04-17T06:15:15.898Z,35.30
2023-04-17T06:16:18.614Z,34.43
2023-04-17T06:17:24.075Z,35.80
2023-04-17T06:18:26.084Z,36.37
2023-04-17T06:19:29.102Z,33.40
2023-04-17T06:20:31.362Z,34.83
2023-04-17T06:21:34.402Z,36.27
2023-04-17T06:22:38.251Z,31.40
2023-04-17T06:23:41.313Z,31.93
2023-04-17T06:24:43.369Z,33.60
2023-04-17T06:25:47.355Z,36.13
2023-04-17T06:26:50.620Z,31.33
2023-04-17T06:27:52.906Z,33.90
2023-04-17T06:28:56.075Z,29.10
2023-04-17T06:30:00.870Z,33.03
2023-04-17T06:31:05.689Z,33.20
2023-04-17T06:32:09.828Z,31.03
2023-04-17T06:33:14.326Z,31.90
2023-04-17T06:34:16.669Z,30.87
2023-04-17T06:35:22.413Z,31.50
2023-04-17T06:36:37.286Z,29.73
2023-04-17T06:37:41.880Z,33.53
2023-04-17T06:38:44.039Z,32.43
2023-04-17T06:39:47.272Z,32.50
2023-04-17T06:40:51.389Z,31.27
2023-04-17T06:41:56.228Z,29.17
2023-04-17T06:43:03.506Z,30.20
2023-04-17T06:44:06.119Z,26.87
2023-04-17T06:45:35.141Z,28.60
2023-04-17T06:46:41.599Z,27.53
2023-04-17T06:47:46.884Z,27.07
2023-04-17T06:48:52.356Z,26.00
2023-04-17T06:49:55.431Z,24.63
2023-04-17T06:50:57.677Z,27.60
2023-04-17T06:52:00.873Z,25.23
2023-04-17T06:53:04.273Z,24.93
2023-04-17T06:54:09.805Z,23.27
2023-04-17T06:55:11.911Z,25.87
2023-04-17T06:56:15.379Z,23.17
2023-04-17T06:57:18.387Z,24.50
2023-04-17T06:58:21.514Z,25.83
2023-04-17T06:59:23.555Z,24.97
2023-04-17T07:00:26.810Z,24.90
2023-04-17T07:01:31.296Z,23.83
2023-04-17T07:02:34.475Z,27.03
2023-04-17T07:03:36.753Z,26.47
2023-04-17T07:04:40.247Z,23.53
2023-04-17T07:05:44.490Z,23.30
2023-04-17T07:06:47.619Z,26.37
2023-04-17T07:07:49.747Z,25.17
2023-04-17T07:08:55.639Z,23.73
2023-04-17T07:09:58.710Z,23.33
2023-04-17T07:11:02.752Z,21.50
2023-04-17T07:12:04.942Z,22.30
2023-04-17T07:13:08.036Z,22.47
2023-04-17T07:14:12.324Z,22.70
2023-04-17T07:15:16.548Z,23.83
2023-04-17T07:16:21.334Z,23.50
2023-04-17T07:17:23.419Z,21.33
2023-04-17T07:18:26.994Z,22.60
2023-04-17T07:19:30.013Z,22.83
2023-04-17T07:20:32.081Z,20.40
2023-04-17T07:21:35.341Z,22.63
2023-04-17T07:22:37.463Z,21.00
2023-04-17T07:23:40.843Z,18.10
2023-04-17T07:24:45.214Z,20.90
2023-04-17T07:25:47.673Z,22.13
2023-04-17T07:26:50.679Z,20.63
2023-04-17T07:27:54.885Z,23.67
2023-04-17T07:28:58.060Z,23.83
2023-04-17T07:30:00.996Z,21.77
2023-04-17T07:31:04.760Z,21.50
2023-04-17T07:32:07.755Z,22.17
2023-04-17T07:33:11.129Z,22.20
2023-04-17T07:34:14.221Z,18.40
2023-04-17T07:35:17.266Z,20.10
2023-04-17T07:36:19.355Z,20.80
2023-04-17T07:37:22.420Z,21.50
2023-04-17T07:38:25.988Z,18.37
2023-04-17T07:39:31.501Z,18.20
2023-04-17T07:40:37.456Z,18.77
2023-04-17T07:41:40.639Z,19.53
2023-04-17T07:42:42.700Z,19.33
2023-04-17T07:43:45.764Z,19.27
2023-04-17T07:44:48.847Z,20.63
2023-04-17T07:45:51.878Z,20.53
2023-04-17T07:46:53.994Z,20.00
2023-04-17T07:47:57.158Z,20.43
2023-04-17T07:48:59.546Z,19.83
2023-04-17T07:50:02.628Z,23.13
2023-04-17T07:51:05.962Z,22.83
2023-04-17T07:52:08.107Z,20.30
2023-04-17T07:53:11.506Z,22.17
2023-04-17T07:54:13.519Z,21.07
2023-04-17T07:55:16.743Z,22.70
2023-04-17T07:56:21.103Z,21.07
2023-04-17T07:57:26.333Z,21.83
2023-04-17T07:58:29.652Z,21.57
2023-04-17T07:59:31.664Z,21.53
2023-04-17T08:00:34.998Z,20.47
2023-04-17T08:01:37.163Z,16.73
2023-04-17T08:02:40.367Z,16.67
2023-04-17T08:03:44.994Z,15.30
2023-04-17T08:04:48.430Z,16.00
2023-04-17T08:05:51.944Z,15.73
2023-04-17T08:06:55.037Z,14.90
2023-04-17T08:07:58.088Z,12.27
2023-04-17T08:09:02.169Z,14.67
2023-04-17T08:10:06.103Z,14.17
2023-04-17T08:11:08.235Z,14.00
2023-04-17T08:12:12.630Z,13.67
2023-04-17T08:13:14.816Z,16.80
2023-04-17T08:14:20.198Z,14.80
2023-04-17T08:15:23.226Z,14.40
2023-04-17T08:16:25.334Z,15.90
2023-04-17T08:17:30.140Z,16.67
2023-04-17T08:18:32.327Z,16.50
2023-04-17T08:19:35.389Z,17.03
2023-04-17T08:20:38.697Z,14.80
2023-04-17T08:21:42.081Z,14.27
2023-04-17T08:22:45.810Z,12.40
2023-04-17T08:23:49.303Z,14.80
2023-04-17T08:24:54.731Z,17.57
2023-04-17T08:25:58.303Z,17.67
2023-04-17T08:27:00.644Z,18.57
2023-04-17T08:28:05.181Z,19.03
2023-04-17T08:29:08.254Z,14.67
2023-04-17T08:30:14.335Z,16.93
2023-04-17T08:31:19.541Z,15.17
2023-04-17T08:32:22.725Z,14.93
2023-04-17T08:33:27.109Z,14.20
2023-04-17T08:34:31.541Z,15.00
2023-04-17T08:35:34.771Z,13.47
2023-04-17T08:36:36.882Z,14.80
2023-04-17T08:37:40.575Z,16.30
2023-04-17T08:38:45.105Z,15.03
2023-04-17T08:39:52.359Z,14.70
2023-04-17T08:40:58.385Z,14.30
2023-04-17T08:42:06.058Z,15.57
2023-04-17T08:43:15.123Z,14.60
2023-04-17T08:44:20.642Z,15.30
2023-04-17T08:45:25.098Z,14.40
2023-04-17T08:46:28.074Z,15.27
2023-04-17T08:47:31.146Z,12.70
2023-04-17T08:48:34.415Z,13.17
2023-04-17T08:49:36.653Z,15.17
2023-04-17T08:50:42.071Z,15.73
2023-04-17T08:51:44.340Z,14.20
2023-04-17T08:52:48.881Z,14.33
2023-04-17T08:53:51.011Z,13.47
2023-04-17T08:54:54.694Z,12.67
2023-04-17T08:56:04.444Z,14.23
2023-04-17T08:57:08.250Z,13.40
2023-04-17T08:58:14.478Z,12.73
2023-04-17T08:59:17.853Z,13.23
2023-04-17T09:00:25.727Z,13.93
2023-04-17T09:01:30.094Z,12.10
2023-04-17T09:02:32.315Z,12.53
2023-04-17T09:03:42.210Z,12.93
2023-04-17T09:04:45.731Z,12.13
2023-04-17T09:05:49.102Z,11.63
2023-04-17T09:06:54.230Z,12.40
2023-04-17T09:08:12.388Z,11.30
2023-04-17T09:09:14.457Z,12.80
2023-04-17T09:10:17.585Z,11.60
2023-04-17T09:11:19.713Z,12.10
2023-04-17T09:12:24.240Z,12.67
2023-04-17T09:13:30.234Z,12.60
2023-04-17T09:14:32.342Z,12.90
2023-04-17T09:15:36.083Z,11.50
2023-04-17T09:16:53.627Z,10.43
2023-04-17T09:17:56.757Z,13.03
2023-04-17T09:19:06.839Z,10.83
2023-04-17T09:20:11.763Z,10.63
2023-04-17T09:21:19.650Z,9.87
2023-04-17T09:22:22.659Z,9.30
2023-04-17T09:23:25.954Z,10.20
2023-04-17T09:24:34.736Z,9.03
2023-04-17T09:25:37.867Z,10.30
2023-04-17T09:26:39.936Z,10.50
2023-04-17T09:27:43.015Z,10.57
2023-04-17T09:29:03.825Z,10.53
2023-04-17T09:30:08.037Z,9.03
2023-04-17T09:31:27.220Z,9.90
2023-04-17T09:32:32.721Z,9.50
2023-04-17T09:33:35.781Z,8.50
2023-04-17T09:34:40.929Z,10.17
2023-04-17T09:35:44.013Z,9.43
2023-04-17T09:36:47.096Z,9.10
2023-04-17T09:37:50.646Z,9.10
2023-04-17T09:38:53.912Z,8.53
2023-04-17T09:40:01.885Z,8.60
2023-04-17T09:41:06.345Z,7.83
2023-04-17T09:42:10.391Z,7.77
2023-04-17T09:43:13.444Z,8.17
2023-04-17T09:44:26.132Z,8.27
2023-04-17T09:45:35.372Z,7.30
2023-04-17T09:46:41.419Z,7.00
2023-04-17T09:47:47.112Z,7.60
2023-04-17T09:48:50.464Z,7.10
2023-04-17T09:49:54.014Z,6.97
2023-04-17T09:50:57.478Z,7.40
2023-04-17T09:52:00.473Z,6.37
2023-04-17T09:53:04.846Z,5.33
2023-04-17T09:54:08.933Z,5.90
2023-04-17T09:55:12.731Z,6.17
2023-04-17T09:56:15.207Z,7.03
2023-04-17T09:57:19.291Z,5.40
2023-04-17T09:58:22.899Z,6.13
2023-04-17T09:59:27.582Z,5.67
2023-04-17T10:00:31.251Z,5.40
2023-04-17T10:01:34.819Z,5.00
2023-04-17T10:02:39.139Z,5.33
2023-04-17T10:03:42.499Z,5.73
2023-04-17T10:04:47.274Z,4.93
2023-04-17T10:05:50.391Z,4.97
2023-04-17T10:06:52.775Z,5.50
2023-04-17T10:07:56.224Z,5.73
2023-04-17T10:08:58.712Z,4.90
2023-04-17T10:10:03.200Z,4.87
2023-04-17T10:11:08.301Z,4.67
2023-04-17T10:12:16.679Z,4.93
2023-04-17T10:13:21.306Z,4.90
2023-04-17T10:14:28.339Z,4.90
2023-04-17T10:15:32.144Z,4.60
2023-04-17T10:16:35.666Z,5.40
2023-04-17T10:17:38.940Z,4.83
2023-04-17T10:18:41.683Z,5.07
2023-04-17T10:19:44.915Z,4.53
2023-04-17T10:20:48.630Z,4.63
2023-04-17T10:22:27.918Z,4.50
2023-04-17T10:23:33.074Z,5.07
2023-04-17T10:24:35.211Z,4.33
2023-04-17T10:25:38.257Z,4.17
2023-04-17T10:26:40.355Z,4.00
2023-04-17T10:27:45.383Z,4.67
2023-04-17T10:28:49.177Z,4.47
2023-04-17T10:29:58.146Z,4.23
2023-04-17T10:31:01.965Z,4.30
2023-04-17T10:32:25.978Z,4.57
2023-04-17T10:33:29.242Z,4.60
2023-04-17T10:34:34.457Z,4.73
2023-04-17T10:35:37.848Z,5.50
2023-04-17T10:36:49.642Z,4.67
2023-04-17T10:38:05.229Z,4.63
2023-04-17T10:39:14.908Z,5.00
2023-04-17T10:40:21.422Z,4.10
2023-04-17T10:41:25.022Z,4.00
2023-04-17T10:42:29.433Z,4.60
2023-04-17T10:43:32.878Z,4.40
2023-04-17T10:44:35.418Z,3.93
2023-04-17T10:45:58.362Z,4.30
2023-04-17T10:47:07.217Z,4.30
2023-04-17T10:48:20.541Z,4.07
2023-04-17T10:49:23.642Z,4.03
2023-04-17T10:50:28.520Z,3.73
2023-04-17T10:51:42.097Z,4.17
2023-04-17T10:52:45.701Z,3.57
2023-04-17T10:53:49.152Z,3.97
2023-04-17T10:55:05.010Z,3.93
2023-04-17T10:56:07.486Z,3.97
2023-04-17T10:57:11.708Z,4.07
2023-04-17T10:58:15.370Z,4.50
2023-04-17T10:59:20.730Z,4.13
2023-04-17T11:00:30.848Z,4.27
2023-04-17T11:01:40.347Z,4.13
2023-04-17T11:02:45.545Z,4.47
2023-04-17T11:03:49.094Z,4.10
2023-04-17T11:05:07.552Z,4.57
2023-04-17T11:06:10.933Z,4.30
2023-04-17T11:07:13.920Z,4.50
2023-04-17T11:08:16.227Z,4.70
2023-04-17T11:09:21.796Z,4.83
2023-04-17T11:10:25.263Z,4.87
2023-04-17T11:11:40.600Z,4.27
2023-04-17T11:12:47.462Z,4.27
2023-04-17T11:13:50.641Z,4.30
2023-04-17T11:14:53.603Z,4.33
2023-04-17T11:15:56.663Z,4.20
2023-04-17T11:17:02.397Z,5.10
2023-04-17T11:18:04.706Z,4.93
2023-04-17T11:19:09.860Z,4.63
2023-04-17T11:20:12.772Z,4.67
2023-04-17T11:21:18.335Z,4.80
2023-04-17T11:22:21.493Z,5.07
2023-04-17T11:23:24.487Z,4.40
2023-04-17T11:24:27.896Z,4.43
2023-04-17T11:25:33.850Z,4.53
2023-04-17T11:26:43.676Z,3.93
2023-04-17T11:27:45.995Z,4.17
2023-04-17T11:28:49.130Z,3.93
2023-04-17T11:29:51.274Z,4.10
2023-04-17T11:30:54.386Z,4.60
2023-04-17T11:32:00.751Z,4.47
2023-04-17T11:33:05.887Z,7.10
2023-04-17T11:34:08.377Z,6.23
2023-04-17T11:35:11.949Z,4.03
2023-04-17T11:36:15.407Z,4.20
2023-04-17T11:37:17.479Z,4.00
2023-04-17T11:38:22.483Z,3.90
2023-04-17T11:39:26.761Z,4.27
2023-04-17T11:40:31.757Z,4.20
2023-04-17T11:41:38.198Z,3.60
2023-04-17T11:42:44.875Z,3.33
2023-04-17T11:43:47.964Z,6.20
2023-04-17T11:44:49.973Z,5.97
2023-04-17T11:45:54.406Z,4.63
2023-04-17T11:46:59.966Z,4.70
2023-04-17T11:48:02.546Z,7.63
2023-04-17T11:49:05.731Z,8.80
2023-04-17T11:50:08.316Z,10.80
2023-04-17T11:51:13.470Z,7.73
2023-04-17T11:52:17.629Z,3.90
2023-04-17T11:53:21.230Z,3.50
2023-04-17T11:54:28.090Z,3.80
2023-04-17T11:55:31.478Z,4.07
2023-04-17T11:56:34.598Z,3.60
2023-04-17T11:57:43.230Z,3.63
2023-04-17T11:58:48.151Z,3.40
2023-04-17T11:59:50.165Z,3.57
2023-04-17T12:01:05.436Z,3.37
2023-04-17T12:02:10.661Z,3.33
2023-04-17T12:03:33.743Z,3.70
2023-04-17T12:04:38.084Z,3.50
2023-04-17T12:05:40.541Z,3.40
2023-04-17T12:06:43.648Z,2.87
2023-04-17T12:07:45.728Z,3.27
2023-04-17T12:08:51.062Z,3.17
2023-04-17T12:09:57.522Z,3.00
2023-04-17T12:11:00.647Z,2.83
2023-04-17T12:12:05.847Z,2.93
2023-04-17T12:13:09.475Z,2.93
2023-04-17T12:14:12.744Z,3.23
2023-04-17T12:15:15.125Z,3.07
2023-04-17T12:16:18.265Z,3.07
2023-04-17T12:17:22.180Z,2.73
2023-04-17T12:18:25.204Z,3.10
2023-04-17T12:19:29.203Z,2.97
2023-04-17T12:20:36.662Z,2.70
2023-04-17T12:21:39.699Z,3.50
2023-04-17T12:22:41.732Z,2.70
2023-04-17T12:23:44.783Z,3.80
2023-04-17T12:24:47.171Z,2.70
2023-04-17T12:25:50.305Z,2.83
2023-04-17T12:26:53.639Z,2.90
2023-04-17T12:27:57.084Z,2.70
2023-04-17T12:29:00.239Z,3.37
2023-04-17T12:30:02.304Z,3.10
2023-04-17T12:31:05.649Z,2.63
2023-04-17T12:32:07.969Z,2.80
2023-04-17T12:33:13.009Z,2.80
2023-04-17T12:34:15.348Z,2.57
2023-04-17T12:35:19.794Z,2.70
2023-04-17T12:36:23.022Z,2.47
2023-04-17T12:37:25.318Z,2.60
2023-04-17T12:38:28.528Z,2.80
2023-04-17T12:39:30.588Z,2.60
2023-04-17T12:40:33.813Z,2.90
2023-04-17T12:41:35.986Z,2.43
2023-04-17T12:42:48.295Z,2.80
2023-04-17T12:43:52.099Z,2.67
2023-04-17T12:44:54.189Z,2.63
2023-04-17T12:45:58.393Z,2.73
2023-04-17T12:47:00.526Z,2.83
2023-04-17T12:48:03.569Z,2.60
2023-04-17T12:49:07.143Z,2.60
2023-04-17T12:50:11.879Z,2.40
2023-04-17T12:51:14.892Z,2.63
2023-04-17T12:52:16.978Z,3.00
2023-04-17T12:53:20.049Z,2.67
2023-04-17T12:54:22.232Z,2.60
2023-04-17T12:55:26.174Z,2.80
2023-04-17T12:56:29.387Z,2.40
2023-04-17T12:57:31.423Z,2.50
2023-04-17T12:58:34.481Z,2.57
2023-04-17T12:59:36.493Z,2.40
2023-04-17T13:00:40.702Z,2.53
2023-04-17T13:01:43.594Z,2.20
2023-04-17T13:02:46.809Z,2.20
2023-04-17T13:03:49.230Z,2.23
2023-04-17T13:04:54.009Z,2.38
2023-04-17T13:05:57.467Z,2.40
2023-04-17T13:06:59.554Z,2.63
2023-04-17T13:08:02.664Z,2.40
2023-04-17T13:09:04.774Z,2.78
2023-04-17T13:10:09.138Z,2.42
2023-04-17T13:11:12.121Z,2.70
2023-04-17T13:12:15.423Z,2.65
2023-04-17T13:13:18.474Z,2.30
2023-04-17T13:14:20.677Z,2.42
2023-04-17T13:15:23.743Z,2.15
2023-04-17T13:16:26.440Z,2.00
2023-04-17T13:17:29.585Z,2.10
2023-04-17T13:18:32.582Z,2.50
2023-04-17T13:19:35.441Z,2.28
2023-04-17T13:20:40.017Z,2.15
2023-04-17T13:21:42.037Z,2.30
2023-04-17T13:22:45.271Z,2.10
2023-04-17T13:23:47.407Z,2.30
2023-04-17T13:24:50.494Z,2.40
2023-04-17T13:25:53.626Z,2.73
2023-04-17T13:26:57.688Z,2.90
2023-04-17T13:28:01.140Z,2.70
2023-04-17T13:29:03.188Z,2.60
2023-04-17T13:30:07.591Z,2.30
2023-04-17T13:31:09.617Z,2.63
2023-04-17T13:32:12.788Z,2.30
2023-04-17T13:33:15.022Z,2.10
2023-04-17T13:34:18.254Z,2.30
2023-04-17T13:35:21.252Z,2.30
2023-04-17T13:36:24.623Z,2.17
2023-04-17T13:37:27.664Z,2.40
2023-04-17T13:38:30.470Z,2.20
2023-04-17T13:39:33.505Z,2.40
2023-04-17T13:40:36.325Z,2.43
2023-04-17T13:41:39.377Z,2.43
2023-04-17T13:42:42.355Z,2.40
2023-04-17T13:43:44.657Z,2.40
2023-04-17T13:44:49.346Z,2.53
2023-04-17T13:45:53.368Z,2.13
2023-04-17T13:46:58.037Z,2.23
2023-04-17T13:48:00.323Z,2.50
2023-04-17T13:49:03.601Z,2.53
2023-04-17T13:50:08.027Z,2.33
2023-04-17T13:51:10.227Z,2.20
2023-04-17T13:52:14.556Z,2.10
2023-04-17T13:53:16.680Z,2.07
2023-04-17T13:54:19.690Z,2.10
2023-04-17T13:55:21.804Z,2.20
2023-04-17T13:56:24.885Z,2.30